Time;durP1;ratioP1;P1;durP2;ratioP2;P2;SDS_P1;SDS_P2;PMS_P1;PMS_P2;Temp;Humidity;BMP_temperature;BMP_pressure;BME280_temperature;BME280_humidity;BME280_pressure;Samples;Min_cycle;Max_cycle;Signal;HPM_P1;HPM_P2
2022/09/28 00:01:54;;;;;;;0.70;0.70;;;;;6.20;92342.00;;;;7411032;19;20143;-80
2022/09/28 00:04:22;;;;;;;1.27;0.93;;;;;6.20;92324.00;;;;7413967;19;20133;-76
2022/09/28 00:06:49;;;;;;;2.47;0.90;;;;;6.20;92330.00;;;;7418996;19;20151;-81
2022/09/28 00:09:25;;;;;;;1.50;0.80;;;;;6.30;92323.00;;;;7413697;19;20129;-80
2022/09/28 00:12:01;;;;;;;2.10;0.80;;;;;6.30;92331.00;;;;7421271;19;20628;-78
2022/09/28 00:23:21;;;;;;;3.40;1.10;;;;;6.40;92310.00;;;;7409482;19;20145;-81
2022/09/28 00:26:02;;;;;;;1.20;0.70;;;;;6.40;92305.00;;;;7406765;19;20125;-81
2022/09/28 00:28:34;;;;;;;1.40;0.80;;;;;6.40;92308.00;;;;7411695;19;20141;-80
2022/09/28 00:31:12;;;;;;;1.00;0.80;;;;;6.40;92288.00;;;;7411730;19;20155;-79
2022/09/28 00:33:41;;;;;;;2.53;1.00;;;;;6.40;92285.00;;;;7421702;19;20133;-79
2022/09/28 01:06:16;;;;;;;0.90;0.80;;;;;6.20;92224.00;;;;7333027;19;20133;31
2022/09/28 01:23:53;;;;;;;2.53;1.30;;;;;6.50;92192.00;;;;7331652;19;20149;31
2022/09/28 01:36:49;;;;;;;1.80;1.43;;;;;6.70;92178.00;;;;7338554;19;20188;-78
2022/09/28 01:39:40;;;;;;;2.30;1.50;;;;;6.70;92166.00;;;;7413523;19;20641;-81
2022/09/28 01:42:22;;;;;;;1.53;1.40;;;;;6.70;92163.00;;;;7410019;19;20150;-80
2022/09/28 01:45:04;;;;;;;2.00;1.33;;;;;6.70;92157.00;;;;7416926;19;20125;-79
2022/09/28 01:47:48;;;;;;;1.40;1.27;;;;;6.70;92155.00;;;;7404499;19;20191;-79
2022/09/28 01:56:32;;;;;;;1.40;1.30;;;;;6.70;92133.00;;;;7486424;18;20188;-80
2022/09/28 02:17:25;;;;;;;2.67;1.30;;;;;7.20;92118.00;;;;4759775;29;21249;31
2022/09/28 02:20:20;;;;;;;4.90;1.17;;;;;7.30;92122.00;;;;7417351;19;20165;-81
2022/09/28 02:22:52;;;;;;;1.33;1.00;;;;;7.30;92116.00;;;;7421275;19;20159;-81
2022/09/28 02:25:52;;;;;;;6.17;1.27;;;;;7.30;92122.00;;;;7415936;19;20156;-80
2022/09/28 02:28:23;;;;;;;3.23;1.17;;;;;7.30;92111.00;;;;7411672;19;20143;-80
2022/09/28 02:55:14;;;;;;;0.87;0.60;;;;;7.50;92099.00;;;;7353577;19;20196;-79
2022/09/28 02:58:18;;;;;;;0.73;0.67;;;;;7.50;92097.00;;;;7412858;19;20142;-80
2022/09/28 03:01:40;;;;;;;0.50;0.50;;;;;6.60;92092.00;;;;7411931;19;20172;-80
2022/09/28 03:04:26;;;;;;;0.97;0.50;;;;;7.50;92096.00;;;;7414248;19;20611;-79
2022/09/28 03:07:28;;;;;;;0.70;0.40;;;;;7.50;92088.00;;;;7423791;19;20149;-80
2022/09/28 03:16:27;;;;;;;1.03;0.53;;;;;7.40;92092.00;;;;7396966;19;20198;-80
2022/09/28 03:21:48;;;;;;;1.40;0.70;;;;;7.50;92094.00;;;;7414886;19;20188;-80
2022/09/28 03:35:49;;;;;;;2.57;0.73;;;;;7.40;92115.00;;;;7340597;19;20137;-81
2022/09/28 03:38:34;;;;;;;0.60;0.47;;;;;7.40;92108.00;;;;7420505;19;20129;-80
2022/09/28 03:41:03;;;;;;;2.13;0.60;;;;;7.40;92117.00;;;;7409081;19;20600;-81
2022/09/28 03:43:36;;;;;;;2.23;0.50;;;;;7.30;92105.00;;;;7406601;19;20145;-80
2022/09/28 03:46:20;;;;;;;1.63;0.63;;;;;7.30;92109.00;;;;7379536;19;20202;31
2022/09/28 03:51:41;;;;;;;0.60;0.40;;;;;7.00;92111.00;;;;7378170;19;20195;-80
2022/09/28 04:30:13;;;;;;;3.93;0.80;;;;;6.60;92100.00;;;;7410235;19;20169;-81
2022/09/28 04:35:28;;;;;;;3.13;1.00;;;;;6.60;92100.00;;;;7342487;19;21345;-80
2022/09/28 04:44:17;;;;;;;4.83;0.80;;;;;6.50;92093.00;;;;7377941;19;20203;31
2022/09/28 04:47:01;;;;;;;0.87;0.60;;;;;6.60;92093.00;;;;7408739;19;20173;-79
2022/09/28 05:01:25;;;;;;;0.63;0.30;;;;;6.50;92104.00;;;;7348439;19;20185;-80
2022/09/28 05:04:06;;;;;;;1.17;0.70;;;;;6.60;92109.00;;;;7411993;19;20161;-80
2022/09/28 05:06:38;;;;;;;3.43;0.60;;;;;6.80;92099.00;;;;7417474;19;20128;-80
2022/09/28 05:09:13;;;;;;;0.60;0.60;;;;;6.50;92092.00;;;;7411686;19;20137;-80
2022/09/28 05:11:42;;;;;;;1.43;0.50;;;;;6.70;92108.00;;;;7418042;19;20136;-80
2022/09/28 05:14:11;;;;;;;0.83;0.40;;;;;6.70;92102.00;;;;7416250;19;20169;-80
2022/09/28 05:16:45;;;;;;;2.17;0.80;;;;;6.60;92100.00;;;;7418172;19;20602;-81
2022/09/28 05:21:54;;;;;;;2.10;0.60;;;;;6.80;92114.00;;;;7357392;19;20192;-79
2022/09/28 05:24:41;;;;;;;3.07;0.70;;;;;6.80;92119.00;;;;7406454;19;20125;-79
2022/09/28 05:27:12;;;;;;;3.23;0.80;;;;;6.70;92128.00;;;;7409989;19;20151;-79
2022/09/28 05:29:47;;;;;;;1.77;0.80;;;;;6.70;92127.00;;;;7405222;19;20631;-79
2022/09/28 05:32:15;;;;;;;1.97;0.77;;;;;6.70;92115.00;;;;7400629;19;20129;-78
2022/09/28 05:34:43;;;;;;;1.63;0.70;;;;;6.60;92122.00;;;;7399800;19;20121;-78
2022/09/28 05:37:17;;;;;;;1.03;0.60;;;;;6.70;92133.00;;;;7402530;19;20164;-79
2022/09/28 05:39:46;;;;;;;0.73;0.53;;;;;6.70;92136.00;;;;7405392;19;20505;-79
2022/09/28 05:42:14;;;;;;;2.63;1.30;;;;;6.70;92137.00;;;;7401995;19;20203;-78
2022/09/28 05:44:48;;;;;;;2.73;0.87;;;;;6.50;92133.00;;;;7398985;19;20148;-80
2022/09/28 05:47:16;;;;;;;1.03;0.93;;;;;6.60;92133.00;;;;7396000;19;20156;-79
2022/09/28 05:49:44;;;;;;;2.90;1.00;;;;;6.70;92130.00;;;;7405086;19;20153;-78
2022/09/28 05:52:18;;;;;;;0.77;0.77;;;;;6.80;92118.00;;;;7403761;19;20177;-79
2022/09/28 05:54:46;;;;;;;3.73;0.90;;;;;6.70;92133.00;;;;7414314;19;20145;-80
2022/09/28 05:57:14;;;;;;;4.27;0.90;;;;;6.70;92130.00;;;;7414195;19;20647;-78
2022/09/28 05:59:50;;;;;;;1.27;1.03;;;;;7.00;92135.00;;;;7421036;19;20136;-78
2022/09/28 06:05:41;;;;;;;6.13;1.60;;;;;6.90;92131.00;;;;7368543;19;20192;-82
2022/09/28 06:11:24;;;;;;;6.70;1.90;;;;;6.90;92144.00;;;;7376723;19;20196;-79
2022/09/28 06:14:04;;;;;;;5.63;1.93;;;;;7.00;92141.00;;;;7417861;19;20125;-79
2022/09/28 06:16:39;;;;;;;4.23;1.83;;;;;7.00;92143.00;;;;7426435;19;20129;-80
2022/09/28 06:19:27;;;;;;;8.70;2.40;;;;;7.00;92140.00;;;;7425948;19;20133;-79
2022/09/28 06:22:30;;;;;;;7.50;2.87;;;;;7.00;92149.00;;;;7425597;19;20145;-79
2022/09/28 06:25:09;;;;;;;8.90;3.23;;;;;7.00;92147.00;;;;7418442;19;20145;-80
2022/09/28 06:27:52;;;;;;;8.50;3.00;;;;;6.90;92147.00;;;;7386133;19;20184;-79
2022/09/28 06:30:33;;;;;;;13.93;3.80;;;;;7.00;92156.00;;;;7409765;19;20235;-78
2022/09/28 06:33:01;;;;;;;13.03;2.97;;;;;7.00;92151.00;;;;7408893;19;20133;-79
2022/09/28 06:35:36;;;;;;;10.13;3.30;;;;;7.00;92161.00;;;;7409644;19;20148;-77
2022/09/28 06:38:04;;;;;;;10.60;3.00;;;;;7.10;92168.00;;;;7401017;19;20616;-79
2022/09/28 06:40:33;;;;;;;9.17;3.30;;;;;7.30;92153.00;;;;7414559;19;20132;-79
2022/09/28 06:43:17;;;;;;;9.87;3.13;;;;;7.20;92166.00;;;;7408278;19;20192;-78
2022/09/28 06:45:58;;;;;;;9.53;3.37;;;;;7.20;92176.00;;;;7404865;19;20157;-77
2022/09/28 06:48:49;;;;;;;10.70;3.10;;;;;7.20;92183.00;;;;7417849;19;20155;-79
2022/09/28 06:51:42;;;;;;;6.17;2.20;;;;;7.10;92187.00;;;;7377643;19;20192;-79
2022/09/28 06:54:16;;;;;;;9.23;2.20;;;;;6.90;92191.00;;;;7406165;19;20145;-79
2022/09/28 06:56:44;;;;;;;3.43;1.67;;;;;7.00;92189.00;;;;7398213;19;20129;-78
2022/09/28 06:59:15;;;;;;;3.53;1.80;;;;;6.70;92187.00;;;;7405087;19;20168;-81
2022/09/28 07:01:58;;;;;;;2.27;1.60;;;;;6.70;92181.00;;;;7408396;19;20161;-82
2022/09/28 07:04:30;;;;;;;2.97;1.80;;;;;6.70;92189.00;;;;7405018;19;20137;-82
2022/09/28 07:07:03;;;;;;;6.23;1.67;;;;;6.70;92198.00;;;;7406790;19;20125;-81
2022/09/28 07:19:26;;;;;;;3.67;1.90;;;;;6.70;92221.00;;;;7367470;19;20686;-79
2022/09/28 07:22:00;;;;;;;3.53;2.20;;;;;6.70;92221.00;;;;7398298;19;20125;-81
2022/09/28 07:24:40;;;;;;;6.80;2.57;;;;;6.70;92243.00;;;;7374952;19;20376;-79
2022/09/28 07:27:23;;;;;;;4.80;2.70;;;;;6.80;92233.00;;;;7395374;19;20479;-79
2022/09/28 07:32:41;;;;;;;10.63;2.80;;;;;6.80;92233.00;;;;7368027;19;20198;-78
2022/09/28 07:35:17;;;;;;;3.90;2.40;;;;;7.00;92237.00;;;;7394233;19;20208;-78
2022/09/28 07:38:08;;;;;;;5.33;2.70;;;;;7.00;92241.00;;;;7423165;19;20133;-78
2022/09/28 07:43:31;;;;;;;4.57;3.00;;;;;7.30;92243.00;;;;7420356;19;20149;-78
2022/09/28 07:45:58;;;;;;;8.63;3.30;;;;;7.30;92254.00;;;;7412350;19;20189;-79
2022/09/28 07:48:26;;;;;;;7.90;3.87;;;;;7.40;92253.00;;;;7406606;19;20538;-78
2022/09/28 07:51:00;;;;;;;8.17;3.27;;;;;7.50;92258.00;;;;7421001;19;20140;-78
2022/09/28 07:53:29;;;;;;;9.57;3.80;;;;;7.50;92252.00;;;;7418321;19;20152;-77
2022/09/28 07:58:40;;;;;;;8.70;3.23;;;;;7.60;92260.00;;;;7421184;19;20204;-77
2022/09/28 08:01:16;;;;;;;6.20;3.13;;;;;7.60;92262.00;;;;7397478;19;20187;-78
2022/09/28 08:03:57;;;;;;;4.60;2.50;;;;;7.40;92278.00;;;;7427878;19;20142;-78
2022/09/28 08:06:28;;;;;;;5.03;2.27;;;;;7.50;92271.00;;;;7417500;19;20635;-78
2022/09/28 08:09:03;;;;;;;6.33;2.70;;;;;7.30;92281.00;;;;7411637;19;20730;-78
2022/09/28 08:11:30;;;;;;;9.30;2.87;;;;;7.40;92280.00;;;;7414068;19;20145;-78
2022/09/28 08:13:59;;;;;;;8.03;3.20;;;;;7.50;92278.00;;;;7413903;19;20157;-77
2022/09/28 08:16:32;;;;;;;5.97;3.63;;;;;7.30;92282.00;;;;7408426;19;20148;-78
2022/09/28 08:19:00;;;;;;;4.20;2.67;;;;;7.70;92285.00;;;;7406703;19;20133;-77
2022/09/28 08:21:46;;;;;;;6.27;2.87;;;;;7.60;92295.00;;;;7408040;19;20160;-78
2022/09/28 08:24:22;;;;;;;9.57;2.97;;;;;7.80;92295.00;;;;7403125;19;20149;-77
2022/09/28 08:26:50;;;;;;;5.33;2.90;;;;;7.80;92289.00;;;;7405381;19;20133;-79
2022/09/28 08:29:17;;;;;;;7.07;2.70;;;;;7.80;92298.00;;;;7406647;19;20153;-78
2022/09/28 08:31:51;;;;;;;16.77;3.57;;;;;7.50;92294.00;;;;7410019;19;20512;-79
2022/09/28 08:34:24;;;;;;;8.53;3.13;;;;;7.60;92308.00;;;;7411640;19;20644;-78
2022/09/28 08:36:59;;;;;;;8.57;2.70;;;;;7.50;92307.00;;;;7402452;19;20188;-79
2022/09/28 08:39:35;;;;;;;8.73;2.63;;;;;7.30;92304.00;;;;7419681;19;20611;-78
2022/09/28 08:55:44;;;;;;;6.73;2.80;;;;;7.90;92319.00;;;;7403297;19;20202;-79
2022/09/28 08:58:41;;;;;;;5.90;2.63;;;;;8.00;92310.00;;;;7351776;19;20184;-79
2022/09/28 09:01:27;;;;;;;6.30;2.80;;;;;8.30;92316.00;;;;7408282;19;20172;-80
2022/09/28 09:04:06;;;;;;;6.77;2.73;;;;;8.40;92328.00;;;;7366690;19;20195;-78
2022/09/28 09:07:01;;;;;;;8.60;3.47;;;;;8.40;92315.00;;;;7401047;19;20627;-78
2022/09/28 09:12:30;;;;;;;7.23;2.67;;;;;8.40;92318.00;;;;7400271;19;20288;-78
2022/09/28 09:15:17;;;;;;;8.73;2.90;;;;;8.40;92311.00;;;;7397138;19;20566;-78
2022/09/28 09:18:36;;;;;;;5.50;2.43;;;;;8.40;92319.00;;;;7403948;19;20169;-79
2022/09/28 09:21:09;;;;;;;7.13;2.70;;;;;8.50;92320.00;;;;7404204;19;20154;-80
2022/09/28 09:24:13;;;;;;;7.87;2.60;;;;;8.70;92320.00;;;;7395867;19;20149;-80
2022/09/28 09:26:42;;;;;;;3.73;2.20;;;;;8.70;92323.00;;;;7395034;19;20406;-78
2022/09/28 09:29:35;;;;;;;3.37;2.17;;;;;8.90;92343.00;;;;7401638;19;20129;-80
2022/09/28 09:32:29;;;;;;;3.73;2.20;;;;;8.70;92337.00;;;;7421861;19;20153;-79
2022/09/28 09:35:30;;;;;;;5.90;2.27;;;;;8.70;92327.00;;;;7405567;19;20125;-80
2022/09/28 09:38:18;;;;;;;6.63;2.13;;;;;8.60;92356.00;;;;7420146;19;20133;-78
2022/09/28 09:41:20;;;;;;;6.87;2.50;;;;;8.60;92343.00;;;;7409961;19;20157;-77
2022/09/28 09:44:37;;;;;;;7.27;2.40;;;;;8.90;92351.00;;;;7388797;19;20224;-81
2022/09/28 09:51:14;;;;;;;3.57;2.30;;;;;8.70;92355.00;;;;7346493;19;20203;-81
2022/09/28 09:54:25;;;;;;;4.67;2.40;;;;;8.60;92358.00;;;;7414171;19;20148;-80
2022/09/28 09:56:57;;;;;;;6.57;2.40;;;;;8.50;92361.00;;;;7419414;19;20136;-79
2022/09/28 09:59:35;;;;;;;6.30;2.37;;;;;8.50;92367.00;;;;7431023;19;20140;-77
2022/09/28 10:02:14;;;;;;;5.63;2.13;;;;;8.60;92365.00;;;;7416487;19;20145;-78
2022/09/28 10:04:50;;;;;;;3.37;1.97;;;;;8.80;92363.00;;;;7404279;19;20132;-78
2022/09/28 10:07:30;;;;;;;5.03;2.53;;;;;8.80;92359.00;;;;7402760;19;20473;-78
2022/09/28 10:10:29;;;;;;;9.53;2.63;;;;;8.60;92366.00;;;;7401721;19;20137;-79
2022/09/28 10:12:59;;;;;;;7.37;2.40;;;;;8.60;92373.00;;;;7401575;19;20241;-79
2022/09/28 10:15:39;;;;;;;5.17;2.23;;;;;8.50;92369.00;;;;7397276;19;20163;-77
2022/09/28 10:18:19;;;;;;;7.73;2.27;;;;;8.50;92369.00;;;;7396515;19;20166;-77
2022/09/28 10:20:56;;;;;;;5.23;2.33;;;;;8.40;92368.00;;;;7398287;19;20141;-77
2022/09/28 10:23:28;;;;;;;3.60;1.93;;;;;8.50;92374.00;;;;7399945;19;20480;-77
2022/09/28 10:26:24;;;;;;;6.07;2.33;;;;;8.50;92369.00;;;;7400478;19;20156;-76
2022/09/28 10:29:02;;;;;;;8.70;2.50;;;;;8.60;92377.00;;;;7395212;19;20129;-77
2022/09/28 10:31:48;;;;;;;5.78;2.20;;;;;8.90;92375.00;;;;7395237;19;20160;-77
2022/09/28 10:34:26;;;;;;;4.07;2.23;;;;;8.10;92362.00;;;;7397105;19;20148;-77
2022/09/28 10:37:08;;;;;;;4.53;2.10;;;;;8.40;92371.00;;;;7393850;19;20144;-76
2022/09/28 10:39:52;;;;;;;4.10;2.13;;;;;8.50;92369.00;;;;7395013;19;20121;-76
2022/09/28 10:42:30;;;;;;;4.40;2.20;;;;;8.50;92369.00;;;;7394774;19;20137;-77
2022/09/28 10:44:59;;;;;;;3.70;2.05;;;;;9.30;92361.00;;;;7394875;19;20587;-76
2022/09/28 10:47:35;;;;;;;4.53;2.00;;;;;9.40;92375.00;;;;7397541;19;20437;-76
2022/09/28 10:50:13;;;;;;;3.63;2.03;;;;;9.00;92378.00;;;;7394940;19;20140;-76
2022/09/28 10:53:11;;;;;;;4.10;1.60;;;;;9.20;92369.00;;;;7398294;19;20157;-79
2022/09/28 10:55:38;;;;;;;3.88;1.88;;;;;9.70;92361.00;;;;7399189;19;20152;-77
2022/09/28 10:58:25;;;;;;;5.25;1.80;;;;;10.00;92368.00;;;;7402120;19;20163;-76
2022/09/28 11:01:00;;;;;;;2.25;1.73;;;;;10.20;92365.00;;;;7398714;19;20208;-75
2022/09/28 11:03:55;;;;;;;3.80;1.45;;;;;9.70;92373.00;;;;7397399;19;20767;-77
2022/09/28 11:06:25;;;;;;;4.90;1.63;;;;;9.20;92375.00;;;;7406056;19;20630;-78
2022/09/28 11:09:19;;;;;;;7.38;1.90;;;;;9.10;92374.00;;;;7404709;19;20615;-80
2022/09/28 11:11:49;;;;;;;3.88;2.08;;;;;9.10;92364.00;;;;7415536;19;20148;-76
2022/09/28 11:14:25;;;;;;;5.32;1.80;;;;;9.10;92368.00;;;;7404874;19;20148;-78
2022/09/28 11:17:33;;;;;;;3.53;2.13;;;;;9.20;92365.00;;;;7408242;19;20145;-77
2022/09/28 11:20:25;;;;;;;6.38;2.20;;;;;9.20;92369.00;;;;7411646;19;20133;-77
2022/09/28 11:22:57;;;;;;;9.23;2.17;;;;;9.60;92376.00;;;;7418567;19;20189;-78
2022/09/28 11:25:31;;;;;;;5.57;1.80;;;;;9.70;92364.00;;;;7415999;19;20120;-77
2022/09/28 11:28:17;;;;;;;6.47;1.80;;;;;10.40;92372.00;;;;7424163;19;20136;-77
2022/09/28 11:30:52;;;;;;;5.82;1.77;;;;;10.60;92365.00;;;;7419894;19;20173;-77
2022/09/28 11:33:39;;;;;;;5.10;2.15;;;;;10.60;92360.00;;;;7412617;19;20140;-77
2022/09/28 11:36:13;;;;;;;3.55;1.50;;;;;10.80;92363.00;;;;7403323;19;20146;-78
2022/09/28 11:38:55;;;;;;;5.07;1.95;;;;;10.70;92350.00;;;;7403643;19;20147;-81
2022/09/28 11:41:47;;;;;;;4.43;2.17;;;;;11.10;92359.00;;;;7404646;19;20166;-80
2022/09/28 11:44:47;;;;;;;4.93;1.80;;;;;11.00;92354.00;;;;7400430;19;20129;-79
2022/09/28 11:48:11;;;;;;;4.75;1.70;;;;;10.90;92356.00;;;;7398407;19;20149;-77
2022/09/28 11:51:04;;;;;;;4.47;1.65;;;;;10.40;92347.00;;;;7398338;19;20514;-83
2022/09/28 11:53:56;;;;;;;6.82;1.42;;;;;9.90;92348.00;;;;7400639;19;20221;-79
2022/09/28 11:56:49;;;;;;;7.10;1.77;;;;;10.10;92359.00;;;;7408552;19;20165;-78
2022/09/28 11:59:57;;;;;;;5.05;1.88;;;;;9.60;92361.00;;;;7415358;19;20145;-77
2022/09/28 12:02:35;;;;;;;8.02;1.60;;;;;9.80;92360.00;;;;7400042;19;20144;-79
2022/09/28 12:05:21;;;;;;;3.95;1.70;;;;;9.80;92363.00;;;;7409975;19;20251;-78
2022/09/28 12:08:06;;;;;;;2.95;1.63;;;;;9.90;92352.00;;;;7407993;19;20129;-78
2022/09/28 12:10:52;;;;;;;5.07;1.70;;;;;10.10;92353.00;;;;7407624;19;20133;-77
2022/09/28 12:13:36;;;;;;;4.43;1.60;;;;;10.10;92342.00;;;;7408388;19;20172;-77
2022/09/28 12:16:15;;;;;;;4.07;1.40;;;;;10.50;92348.00;;;;7411615;19;20155;-78
2022/09/28 12:19:39;;;;;;;3.88;1.30;;;;;10.50;92348.00;;;;7410198;19;20168;-78
2022/09/28 12:22:39;;;;;;;3.28;1.48;;;;;10.80;92340.00;;;;7406648;19;20195;-80
2022/09/28 12:25:19;;;;;;;4.80;1.65;;;;;10.80;92348.00;;;;7392385;19;20508;-78
2022/09/28 12:27:56;;;;;;;6.00;1.80;;;;;10.40;92355.00;;;;7402324;19;20144;-77
2022/09/28 12:30:29;;;;;;;6.75;1.83;;;;;10.20;92353.00;;;;7403472;19;20129;-76
2022/09/28 12:33:10;;;;;;;5.28;1.92;;;;;10.10;92358.00;;;;7403594;19;20136;-77
2022/09/28 12:36:02;;;;;;;2.30;1.25;;;;;10.00;92361.00;;;;7400754;19;20141;-77
2022/09/28 12:39:11;;;;;;;2.83;1.02;;;;;10.30;92363.00;;;;7395408;19;20145;-78
2022/09/28 12:41:56;;;;;;;5.00;1.48;;;;;10.40;92358.00;;;;7397870;19;20154;-76
2022/09/28 12:44:56;;;;;;;2.75;1.35;;;;;10.30;92361.00;;;;7397622;19;20141;-79
2022/09/28 12:48:06;;;;;;;2.53;1.20;;;;;10.30;92361.00;;;;7397215;19;20550;-79
2022/09/28 12:50:56;;;;;;;2.33;1.20;;;;;10.20;92353.00;;;;7397438;19;20152;-79
2022/09/28 12:53:34;;;;;;;5.03;1.98;;;;;10.20;92354.00;;;;7395522;19;20199;-78
2022/09/28 12:56:18;;;;;;;6.32;4.15;;;;;10.40;92362.00;;;;7405884;19;20659;-81
2022/09/28 12:59:31;;;;;;;2.40;1.10;;;;;10.60;92360.00;;;;7398170;19;20143;-79
2022/09/28 13:02:27;;;;;;;1.88;1.02;;;;;10.30;92347.00;;;;7395597;19;20136;-79
2022/09/28 13:05:37;;;;;;;3.83;1.85;;;;;10.80;92352.00;;;;7394528;19;20133;-81
2022/09/28 13:08:25;;;;;;;3.53;1.38;;;;;10.60;92345.00;;;;7396770;19;20494;-74
2022/09/28 13:11:09;;;;;;;3.88;1.48;;;;;10.60;92358.00;;;;7391766;19;20152;-78
2022/09/28 13:13:53;;;;;;;6.53;2.15;;;;;10.40;92358.00;;;;7394946;19;20149;-78
2022/09/28 13:16:59;;;;;;;6.40;3.50;;;;;10.10;92357.00;;;;7393337;19;20148;-76
2022/09/28 13:19:57;;;;;;;2.72;2.08;;;;;10.30;92365.00;;;;7390972;19;20519;-76
2022/09/28 13:22:43;;;;;;;4.43;1.40;;;;;10.20;92357.00;;;;7393465;19;20129;-77
2022/09/28 13:25:20;;;;;;;1.67;1.25;;;;;10.60;92360.00;;;;7391921;19;20154;-77
2022/09/28 13:28:06;;;;;;;3.90;1.35;;;;;10.70;92353.00;;;;7392777;19;20461;-76
2022/09/28 13:30:42;;;;;;;3.30;1.30;;;;;11.00;92353.00;;;;7391142;19;20149;-77
2022/09/28 13:33:18;;;;;;;3.15;1.15;;;;;10.90;92359.00;;;;7392831;19;20212;-78
2022/09/28 13:35:53;;;;;;;1.83;1.35;;;;;11.10;92354.00;;;;7394062;19;20500;-79
2022/09/28 13:38:21;;;;;;;2.63;1.00;;;;;11.10;92351.00;;;;7392965;19;20136;-78
2022/09/28 13:41:11;;;;;;;4.10;1.50;;;;;11.50;92360.00;;;;7391420;19;20184;-76
2022/09/28 13:44:23;;;;;;;5.20;0.93;;;;;11.20;92355.00;;;;7395407;19;20137;-78
2022/09/28 13:47:02;;;;;;;4.65;1.50;;;;;11.00;92351.00;;;;7391283;19;20144;-78
2022/09/28 13:49:55;;;;;;;3.33;1.20;;;;;10.70;92350.00;;;;7393289;19;20153;-79
2022/09/28 13:52:48;;;;;;;1.95;1.20;;;;;10.60;92360.00;;;;7395700;19;20208;-77
2022/09/28 13:55:28;;;;;;;2.58;1.17;;;;;10.70;92359.00;;;;7396580;19;20153;-78
2022/09/28 13:57:59;;;;;;;2.00;1.10;;;;;10.50;92358.00;;;;7395844;19;20627;-76
2022/09/28 14:01:15;;;;;;;2.83;1.23;;;;;10.50;92368.00;;;;7394583;19;20144;-78
2022/09/28 14:04:20;;;;;;;7.65;1.08;;;;;10.30;92365.00;;;;7393189;19;20616;-75
2022/09/28 14:07:29;;;;;;;3.33;1.13;;;;;10.40;92376.00;;;;7393284;19;20643;-76
2022/09/28 14:10:23;;;;;;;1.73;0.90;;;;;10.20;92375.00;;;;7391273;19;20904;-78
2022/09/28 14:12:57;;;;;;;1.65;1.27;;;;;10.20;92371.00;;;;7393556;19;20176;-78
2022/09/28 14:15:40;;;;;;;4.18;1.42;;;;;10.50;92366.00;;;;7396181;19;20448;-79
2022/09/28 14:18:23;;;;;;;7.07;1.45;;;;;10.70;92370.00;;;;7401332;19;20141;-78
2022/09/28 14:21:00;;;;;;;4.25;1.10;;;;;10.80;92365.00;;;;7391144;19;20149;-77
2022/09/28 14:24:20;;;;;;;3.00;1.35;;;;;11.10;92375.00;;;;7397073;19;20132;-78
2022/09/28 14:27:10;;;;;;;4.40;1.20;;;;;11.10;92363.00;;;;7392362;19;20136;-78
2022/09/28 14:29:53;;;;;;;3.60;0.95;;;;;11.10;92369.00;;;;7393236;19;20202;-79
2022/09/28 14:32:23;;;;;;;2.58;1.10;;;;;11.20;92375.00;;;;7392609;19;20133;-78
2022/09/28 14:35:03;;;;;;;2.90;1.55;;;;;11.30;92374.00;;;;7393854;19;20239;-77
2022/09/28 14:41:08;;;;;;;5.00;1.27;;;;;10.60;92388.00;;;;7401201;19;20525;-78
2022/09/28 14:43:56;;;;;;;3.72;1.02;;;;;10.50;92384.00;;;;7404982;19;20128;-78
2022/09/28 14:46:34;;;;;;;2.55;1.13;;;;;10.50;92373.00;;;;7402817;19;20903;-77
2022/09/28 14:49:18;;;;;;;4.10;1.50;;;;;10.60;92373.00;;;;7401708;19;20141;-78
2022/09/28 14:52:08;;;;;;;3.90;1.42;;;;;10.30;92383.00;;;;7399179;19;20160;-77
2022/09/28 14:54:44;;;;;;;2.63;0.90;;;;;10.50;92383.00;;;;7402873;19;20286;-80
2022/09/28 14:57:27;;;;;;;4.28;1.15;;;;;10.50;92376.00;;;;7399657;19;20129;-78
2022/09/28 14:59:58;;;;;;;3.88;1.40;;;;;10.30;92391.00;;;;7400632;19;20595;-79
2022/09/28 15:02:37;;;;;;;3.40;1.20;;;;;10.20;92385.00;;;;7400249;19;20561;-77
2022/09/28 15:05:26;;;;;;;4.28;1.02;;;;;10.20;92374.00;;;;7397690;19;20623;-78
2022/09/28 15:08:06;;;;;;;3.67;0.98;;;;;10.30;92390.00;;;;7398007;19;20236;-78
2022/09/28 15:10:38;;;;;;;3.33;0.90;;;;;10.50;92376.00;;;;7399704;19;20127;-76
2022/09/28 15:13:23;;;;;;;1.90;1.13;;;;;10.20;92378.00;;;;7398757;19;20149;-78
2022/09/28 15:15:56;;;;;;;5.05;1.23;;;;;10.40;92377.00;;;;7400617;19;20156;-77
2022/09/28 15:18:41;;;;;;;4.10;1.20;;;;;10.40;92391.00;;;;7399981;19;20149;-77
2022/09/28 15:21:10;;;;;;;3.13;0.88;;;;;10.40;92383.00;;;;7402592;19;20135;-78
2022/09/28 15:23:45;;;;;;;5.57;0.90;;;;;10.40;92395.00;;;;7402280;19;20159;-77
2022/09/28 15:26:29;;;;;;;1.13;0.90;;;;;10.30;92395.00;;;;7403061;19;20216;-77
2022/09/28 15:29:16;;;;;;;6.88;4.20;;;;;10.10;92382.00;;;;7400452;19;20156;-78
2022/09/28 15:31:45;;;;;;;5.85;4.13;;;;;10.10;92394.00;;;;7399873;19;20630;-78
2022/09/28 15:34:53;;;;;;;3.78;1.25;;;;;10.20;92392.00;;;;7402873;19;20523;-77
2022/09/28 15:37:27;;;;;;;2.63;1.20;;;;;10.20;92390.00;;;;7402704;19;20485;-77
2022/09/28 15:40:16;;;;;;;2.58;0.60;;;;;10.00;92397.00;;;;7400873;19;20611;-78
2022/09/28 15:42:44;;;;;;;2.67;1.38;;;;;9.90;92405.00;;;;7397461;19;20160;-78
2022/09/28 15:45:37;;;;;;;3.60;1.10;;;;;10.00;92410.00;;;;7399506;19;20540;-78
2022/09/28 15:48:30;;;;;;;6.40;2.35;;;;;9.70;92414.00;;;;7396688;19;20232;-77
2022/09/28 15:51:11;;;;;;;3.92;1.10;;;;;9.90;92406.00;;;;7396731;19;20153;-76
2022/09/28 15:53:58;;;;;;;5.70;1.30;;;;;9.60;92410.00;;;;7396338;19;20148;-78
2022/09/28 15:56:49;;;;;;;2.33;1.13;;;;;9.60;92419.00;;;;7399381;19;20220;-77
2022/09/28 15:59:52;;;;;;;2.40;1.35;;;;;9.30;92407.00;;;;7398010;19;20148;-77
2022/09/28 16:02:28;;;;;;;3.53;1.17;;;;;9.30;92416.00;;;;7399228;19;20129;-77
2022/09/28 16:05:00;;;;;;;2.08;1.00;;;;;9.10;92411.00;;;;7399333;19;20156;-78
2022/09/28 16:07:40;;;;;;;4.87;1.30;;;;;9.30;92417.00;;;;7395275;19;20152;-77
2022/09/28 16:10:11;;;;;;;2.17;1.05;;;;;9.30;92421.00;;;;7421015;19;20148;-77
2022/09/28 16:12:57;;;;;;;2.17;1.10;;;;;9.20;92420.00;;;;7416933;19;20176;-76
2022/09/28 16:15:26;;;;;;;1.58;1.15;;;;;9.20;92416.00;;;;7413582;19;20460;-77
2022/09/28 16:18:11;;;;;;;2.13;1.10;;;;;9.00;92417.00;;;;7413641;19;20158;-76
2022/09/28 16:20:41;;;;;;;2.77;1.20;;;;;8.70;92419.00;;;;7407640;19;20159;-77
2022/09/28 16:23:32;;;;;;;1.53;1.03;;;;;8.60;92419.00;;;;7416022;19;20184;-76
2022/09/28 16:26:04;;;;;;;3.45;0.95;;;;;8.70;92432.00;;;;7412728;19;20120;-78
2022/09/28 16:28:38;;;;;;;2.60;1.30;;;;;8.50;92419.00;;;;7403215;19;20716;-76
2022/09/28 16:31:12;;;;;;;4.22;1.30;;;;;8.70;92427.00;;;;7407423;19;20237;-78
2022/09/28 16:33:54;;;;;;;5.27;1.10;;;;;8.50;92432.00;;;;7397485;19;20147;-79
2022/09/28 16:36:26;;;;;;;2.60;1.35;;;;;8.40;92421.00;;;;7398605;19;21015;-77
2022/09/28 16:39:01;;;;;;;4.63;1.43;;;;;8.40;92423.00;;;;7395716;19;20167;-76
2022/09/28 16:41:29;;;;;;;3.87;1.87;;;;;8.20;92428.00;;;;7401200;19;20622;-79
2022/09/28 16:44:00;;;;;;;3.53;1.20;;;;;8.30;92427.00;;;;7402048;19;20144;-79
2022/09/28 16:46:36;;;;;;;4.47;1.20;;;;;8.00;92424.00;;;;7401357;19;20150;-77
2022/09/28 16:49:05;;;;;;;2.73;1.40;;;;;8.10;92424.00;;;;7402667;19;20141;-77
2022/09/28 16:51:33;;;;;;;9.03;1.50;;;;;8.00;92428.00;;;;7398821;19;20129;-78
2022/09/28 16:57:12;;;;;;;3.53;1.30;;;;;7.60;92427.00;;;;7395227;19;20153;-76
2022/09/28 16:59:46;;;;;;;5.60;1.50;;;;;7.30;92427.00;;;;7391226;19;20136;-76
2022/09/28 17:02:25;;;;;;;3.73;1.60;;;;;7.30;92428.00;;;;7393019;19;20133;-76
2022/09/28 17:05:18;;;;;;;3.70;1.43;;;;;7.10;92427.00;;;;7395653;19;20156;-79
2022/09/28 17:08:00;;;;;;;2.83;1.63;;;;;7.30;92435.00;;;;7397757;19;20512;-77
2022/09/28 17:10:52;;;;;;;3.47;2.27;;;;;7.20;92431.00;;;;7396229;19;20157;-77
2022/09/28 17:13:41;;;;;;;2.27;1.90;;;;;6.90;92445.00;;;;7394535;19;20248;-78
2022/09/28 17:16:19;;;;;;;6.63;2.10;;;;;6.70;92454.00;;;;7396969;19;20488;-75
2022/09/28 17:19:08;;;;;;;5.17;1.50;;;;;6.60;92456.00;;;;7396359;19;20121;-77
2022/09/28 17:21:42;;;;;;;3.70;1.60;;;;;6.40;92462.00;;;;7393875;19;20128;-75
2022/09/28 17:24:14;;;;;;;3.23;1.80;;;;;6.20;92470.00;;;;7392061;19;20129;-77
2022/09/28 17:26:43;;;;;;;2.67;1.20;;;;;6.20;92466.00;;;;7391917;19;20128;-77
2022/09/28 17:29:18;;;;;;;3.30;1.10;;;;;6.00;92473.00;;;;7391423;19;20164;-77
2022/09/28 17:31:47;;;;;;;2.67;1.50;;;;;5.80;92472.00;;;;7395088;19;20125;-77
2022/09/28 17:34:15;;;;;;;2.13;1.33;;;;;5.70;92481.00;;;;7392030;19;20489;-77
2022/09/28 17:36:50;;;;;;;4.30;1.57;;;;;5.70;92464.00;;;;7393942;19;20167;-78
2022/09/28 17:39:18;;;;;;;5.70;1.80;;;;;6.00;92471.00;;;;7392971;19;20188;-78
2022/09/28 17:41:46;;;;;;;6.73;1.70;;;;;5.80;92470.00;;;;7392539;19;20133;-77